createdAt,value
2023-05-25T00:01:25.180Z,60.05
2023-05-25T00:03:55.491Z,60.07
2023-05-25T00:06:23.709Z,59.92
2023-05-25T00:08:55.119Z,60.17
2023-05-25T00:11:23.577Z,60.18
2023-05-25T00:13:52.204Z,60.40
2023-05-25T00:16:20.653Z,61.12
2023-05-25T00:18:48.860Z,61.53
2023-05-25T00:21:16.391Z,61.83
2023-05-25T00:23:48.200Z,61.91
2023-05-25T00:26:16.305Z,62.11
2023-05-25T00:28:44.667Z,62.45
2023-05-25T00:31:13.042Z,62.56
2023-05-25T00:33:41.231Z,62.68
2023-05-25T00:36:09.636Z,63.49
2023-05-25T00:38:37.649Z,63.65
2023-05-25T00:41:06.216Z,63.99
2023-05-25T00:43:34.585Z,64.18
2023-05-25T00:46:03.223Z,63.88
2023-05-25T00:48:30.915Z,63.84
2023-05-25T00:51:00.062Z,63.09
2023-05-25T00:53:27.967Z,62.36
2023-05-25T00:55:58.107Z,62.14
2023-05-25T00:58:28.137Z,64.86
2023-05-25T01:00:56.306Z,69.27
2023-05-25T01:03:28.179Z,73.53
2023-05-25T01:05:56.147Z,77.21
2023-05-25T01:08:23.787Z,80.71
2023-05-25T01:10:51.823Z,79.38
2023-05-25T01:13:19.624Z,84.43
2023-05-25T01:15:47.277Z,85.92
2023-05-25T01:18:18.280Z,89.27
2023-05-25T01:21:20.473Z,90.89
2023-05-25T01:23:52.670Z,92.30
2023-05-25T01:26:19.849Z,88.68
2023-05-25T01:28:57.210Z,89.71
2023-05-25T01:31:24.828Z,91.59
2023-05-25T01:33:53.421Z,95.25
2023-05-25T01:36:21.231Z,94.97
2023-05-25T01:38:49.405Z,94.65
2023-05-25T01:41:17.221Z,94.37
2023-05-25T01:43:45.421Z,94.10
2023-05-25T01:46:36.594Z,93.82
2023-05-25T01:49:21.334Z,94.47
2023-05-25T01:52:04.251Z,92.74
2023-05-25T01:54:38.660Z,91.51
2023-05-25T01:57:09.368Z,91.18
2023-05-25T01:59:36.507Z,90.61
2023-05-25T02:02:06.804Z,90.94
2023-05-25T02:04:35.020Z,90.46
2023-05-25T02:07:04.977Z,90.13
2023-05-25T02:09:32.882Z,90.32
2023-05-25T02:12:01.242Z,89.56
2023-05-25T02:14:28.945Z,89.35
2023-05-25T02:16:57.790Z,89.65
2023-05-25T02:19:25.708Z,89.98
2023-05-25T02:21:53.614Z,90.33
2023-05-25T02:24:23.683Z,89.92
2023-05-25T02:26:51.002Z,90.07
2023-05-25T02:29:19.595Z,89.65
2023-05-25T02:31:47.798Z,89.95
2023-05-25T02:34:15.697Z,90.90
2023-05-25T02:36:45.162Z,91.35
2023-05-25T02:39:12.834Z,91.52
2023-05-25T02:41:40.540Z,91.29
2023-05-25T02:44:08.368Z,92.21
2023-05-25T02:46:36.472Z,92.61
2023-05-25T02:49:04.201Z,93.39
2023-05-25T02:51:32.512Z,92.63
2023-05-25T02:54:01.026Z,92.96
2023-05-25T02:56:28.840Z,93.09
2023-05-25T02:58:57.159Z,93.05
2023-05-25T03:01:25.627Z,92.47
2023-05-25T03:03:53.644Z,92.48
2023-05-25T03:06:22.984Z,92.44
2023-05-25T03:08:51.122Z,92.50
2023-05-25T03:11:19.269Z,92.85
2023-05-25T03:13:46.852Z,92.17
2023-05-25T03:16:14.616Z,92.23
2023-05-25T03:18:43.005Z,92.57
2023-05-25T03:21:10.977Z,93.20
2023-05-25T03:23:39.515Z,93.39
2023-05-25T03:26:07.732Z,93.21
2023-05-25T03:28:35.550Z,92.37
2023-05-25T03:31:03.599Z,91.80
2023-05-25T03:33:31.279Z,90.88
2023-05-25T03:35:59.421Z,90.54
2023-05-25T03:38:27.528Z,89.59
2023-05-25T03:40:55.029Z,88.92
2023-05-25T03:43:23.087Z,89.35
2023-05-25T03:45:51.261Z,89.62
2023-05-25T03:48:19.468Z,90.16
2023-05-25T03:50:47.014Z,90.19
2023-05-25T03:53:14.906Z,89.93
2023-05-25T03:55:43.384Z,89.64
2023-05-25T03:58:11.183Z,89.20
2023-05-25T04:00:39.852Z,89.25
2023-05-25T04:03:11.024Z,89.20
2023-05-25T04:05:38.797Z,88.34
2023-05-25T04:08:08.695Z,88.11
2023-05-25T04:10:36.477Z,87.72
2023-05-25T04:13:04.562Z,87.73
2023-05-25T04:15:34.686Z,86.80
2023-05-25T04:18:03.608Z,86.91
2023-05-25T04:20:31.947Z,86.93
2023-05-25T04:23:00.147Z,86.73
2023-05-25T04:25:29.648Z,86.27
2023-05-25T04:27:58.128Z,85.91
2023-05-25T04:30:26.205Z,85.78
2023-05-25T04:32:54.967Z,84.90
2023-05-25T04:35:23.662Z,84.33
2023-05-25T04:37:51.752Z,85.22
2023-05-25T04:40:21.542Z,84.96
2023-05-25T04:42:49.378Z,86.11
2023-05-25T04:45:18.020Z,86.02
2023-05-25T04:47:45.983Z,85.63
2023-05-25T04:50:13.428Z,85.65
2023-05-25T04:52:41.445Z,85.56
2023-05-25T04:55:10.385Z,84.77
2023-05-25T04:57:38.373Z,84.51
2023-05-25T05:00:11.035Z,83.51
2023-05-25T05:02:40.226Z,82.84
2023-05-25T05:05:09.448Z,82.14
2023-05-25T05:07:38.178Z,81.23
2023-05-25T05:10:08.873Z,81.30
2023-05-25T05:12:36.735Z,81.80
2023-05-25T05:15:05.818Z,82.17
2023-05-25T05:17:34.263Z,81.88
2023-05-25T05:20:02.687Z,81.67
2023-05-25T05:22:30.395Z,81.23
2023-05-25T05:24:58.677Z,80.97
2023-05-25T05:27:26.994Z,80.83
2023-05-25T05:29:54.969Z,80.27
2023-05-25T05:32:23.072Z,80.24
2023-05-25T05:34:50.583Z,79.93
2023-05-25T05:37:18.614Z,78.86
2023-05-25T05:39:46.234Z,78.82
2023-05-25T05:42:14.424Z,78.67
2023-05-25T05:44:42.137Z,78.78
2023-05-25T05:47:09.802Z,78.20
2023-05-25T05:49:39.379Z,78.30
2023-05-25T05:52:09.678Z,78.87
2023-05-25T05:54:37.866Z,79.75
2023-05-25T05:57:08.969Z,79.53
2023-05-25T05:59:37.175Z,79.68
2023-05-25T06:02:05.324Z,79.46
2023-05-25T06:04:33.434Z,78.77
2023-05-25T06:07:01.677Z,79.63
2023-05-25T06:09:29.753Z,79.85
2023-05-25T06:11:58.015Z,77.96
2023-05-25T06:14:28.274Z,77.37
2023-05-25T06:16:57.209Z,77.37
2023-05-25T06:19:25.297Z,77.46
2023-05-25T06:21:53.327Z,77.46
2023-05-25T06:24:20.970Z,78.01
2023-05-25T06:26:48.601Z,76.71
2023-05-25T06:29:17.229Z,76.85
2023-05-25T06:31:45.618Z,76.41
2023-05-25T06:34:13.388Z,75.95
2023-05-25T06:36:41.774Z,75.63
2023-05-25T06:39:09.716Z,75.99
2023-05-25T06:41:39.617Z,76.31
2023-05-25T06:44:08.198Z,75.41
2023-05-25T06:46:36.577Z,75.01
2023-05-25T06:49:04.500Z,74.58
2023-05-25T06:51:33.455Z,73.44
2023-05-25T06:54:01.668Z,72.09
2023-05-25T06:56:30.156Z,71.93
2023-05-25T06:58:58.202Z,71.59
2023-05-25T07:01:26.381Z,71.29
2023-05-25T07:03:54.384Z,70.00
2023-05-25T07:06:22.103Z,69.80
2023-05-25T07:08:50.108Z,69.29
2023-05-25T07:11:20.814Z,68.69
2023-05-25T07:13:48.682Z,67.95
2023-05-25T07:16:16.987Z,66.89
2023-05-25T07:18:45.253Z,67.60
2023-05-25T07:21:13.206Z,67.87
2023-05-25T07:23:41.358Z,66.53
2023-05-25T07:26:09.634Z,67.42
2023-05-25T07:28:37.900Z,67.93
2023-05-25T07:31:06.305Z,67.17
2023-05-25T07:33:34.027Z,67.07
2023-05-25T07:36:02.408Z,68.09
2023-05-25T07:38:30.249Z,66.62
2023-05-25T07:40:58.303Z,64.64
2023-05-25T07:43:26.497Z,63.45
2023-05-25T07:45:55.329Z,64.44
2023-05-25T07:48:23.372Z,65.22
2023-05-25T07:50:51.405Z,65.83
2023-05-25T07:53:20.231Z,65.80
2023-05-25T07:55:48.166Z,65.38
2023-05-25T07:58:16.449Z,66.16
2023-05-25T08:00:44.382Z,66.60
2023-05-25T08:03:12.410Z,66.16
2023-05-25T08:05:40.668Z,66.70
2023-05-25T08:08:08.408Z,66.22
2023-05-25T08:10:36.397Z,66.33
2023-05-25T08:13:06.194Z,66.55
2023-05-25T08:15:34.638Z,67.43
2023-05-25T08:18:04.556Z,67.33
2023-05-25T08:20:32.509Z,67.05
2023-05-25T08:23:01.948Z,67.50
2023-05-25T08:25:30.144Z,66.50
2023-05-25T08:27:58.488Z,66.66
2023-05-25T08:30:26.425Z,66.38
2023-05-25T08:32:54.182Z,66.92
2023-05-25T08:35:22.356Z,67.02
2023-05-25T08:37:50.706Z,66.37
2023-05-25T08:40:18.456Z,66.24
2023-05-25T08:42:46.647Z,66.73
2023-05-25T08:45:30.395Z,67.01
2023-05-25T08:48:01.217Z,67.88
2023-05-25T08:50:29.319Z,67.54
2023-05-25T08:52:56.560Z,67.39
2023-05-25T08:55:24.610Z,66.91
2023-05-25T08:58:28.721Z,65.94
2023-05-25T09:00:57.543Z,65.72
2023-05-25T09:03:25.781Z,65.29
2023-05-25T09:05:54.092Z,65.35
2023-05-25T09:08:22.819Z,64.12
2023-05-25T09:10:50.401Z,62.93
2023-05-25T09:13:22.025Z,61.64
2023-05-25T09:15:50.284Z,61.01
2023-05-25T09:18:18.109Z,59.75
2023-05-25T09:20:47.434Z,59.61
2023-05-25T09:23:15.397Z,59.56
2023-05-25T09:25:43.099Z,58.77
2023-05-25T09:28:25.599Z,58.41
2023-05-25T09:30:54.177Z,58.29
2023-05-25T09:33:22.502Z,58.55
2023-05-25T09:35:50.701Z,57.68
2023-05-25T09:38:19.215Z,57.09
2023-05-25T09:40:47.354Z,56.38
2023-05-25T09:43:24.901Z,56.74
2023-05-25T09:46:00.598Z,55.55
2023-05-25T09:48:29.562Z,54.70
2023-05-25T09:50:59.275Z,55.10
2023-05-25T09:53:27.713Z,54.64
2023-05-25T09:55:55.287Z,53.78
2023-05-25T09:58:26.189Z,52.92
2023-05-25T10:00:55.136Z,52.36
2023-05-25T10:03:22.859Z,53.28
2023-05-25T10:05:49.658Z,51.95
2023-05-25T10:08:18.557Z,50.98
2023-05-25T10:10:47.293Z,48.62
2023-05-25T10:13:15.464Z,48.13
2023-05-25T10:15:43.781Z,46.32
2023-05-25T10:18:12.155Z,45.97
2023-05-25T10:20:39.382Z,46.36
2023-05-25T10:23:14.678Z,47.18
2023-05-25T10:25:45.037Z,48.72
2023-05-25T10:28:17.692Z,44.88
2023-05-25T10:30:46.128Z,45.43
2023-05-25T10:33:14.044Z,44.43
2023-05-25T10:35:56.279Z,45.80
2023-05-25T10:38:31.838Z,44.50
2023-05-25T10:40:59.821Z,44.17
2023-05-25T10:43:27.672Z,45.70
2023-05-25T10:45:56.216Z,44.59
2023-05-25T10:48:25.512Z,44.31
2023-05-25T10:50:53.066Z,44.53
2023-05-25T10:53:22.001Z,44.72
2023-05-25T10:56:01.394Z,43.32
2023-05-25T10:58:33.488Z,44.32
2023-05-25T11:01:23.688Z,44.56
2023-05-25T11:03:54.010Z,42.54
2023-05-25T11:06:22.282Z,42.43
2023-05-25T11:09:06.584Z,41.89
2023-05-25T11:11:42.856Z,42.64
2023-05-25T11:14:30.460Z,43.08
2023-05-25T11:17:14.828Z,41.37
2023-05-25T11:20:12.636Z,41.26
2023-05-25T11:22:40.580Z,42.02
2023-05-25T11:25:37.076Z,41.60
2023-05-25T11:28:08.906Z,40.86
2023-05-25T11:30:37.509Z,40.03
2023-05-25T11:33:07.743Z,39.35
2023-05-25T11:35:38.489Z,40.02
2023-05-25T11:38:09.951Z,40.28
2023-05-25T11:40:44.644Z,41.40
2023-05-25T11:43:12.179Z,39.63
2023-05-25T11:45:40.338Z,39.99
2023-05-25T11:48:13.979Z,39.33
2023-05-25T11:50:42.471Z,36.02
2023-05-25T11:53:11.403Z,35.46
2023-05-25T11:55:41.193Z,33.32
2023-05-25T11:58:09.428Z,33.86
2023-05-25T12:00:38.066Z,32.80
2023-05-25T12:03:05.834Z,31.17
2023-05-25T12:05:39.696Z,31.18
2023-05-25T12:08:07.404Z,29.64
2023-05-25T12:10:34.956Z,27.36
2023-05-25T12:13:02.568Z,27.73
2023-05-25T12:15:30.505Z,27.14
2023-05-25T12:17:58.686Z,26.87
2023-05-25T12:20:26.776Z,25.71
2023-05-25T12:22:54.862Z,25.63
2023-05-25T12:25:22.732Z,24.35
2023-05-25T12:27:50.678Z,24.12
2023-05-25T12:30:18.890Z,23.46
2023-05-25T12:33:02.661Z,22.25
2023-05-25T12:35:32.497Z,22.31
2023-05-25T12:38:17.932Z,22.53
2023-05-25T12:40:45.574Z,22.67
2023-05-25T12:43:14.222Z,22.48
2023-05-25T12:45:43.400Z,22.56
2023-05-25T12:48:11.930Z,22.94
2023-05-25T12:50:39.675Z,21.51
2023-05-25T12:53:07.710Z,21.98
2023-05-25T12:55:36.347Z,20.65
2023-05-25T12:58:05.944Z,21.42
2023-05-25T13:00:38.069Z,21.65
2023-05-25T13:03:09.151Z,21.52
2023-05-25T13:05:37.662Z,21.52
2023-05-25T13:08:05.308Z,21.21
2023-05-25T13:10:33.272Z,19.59
2023-05-25T13:13:01.473Z,20.86
2023-05-25T13:15:32.799Z,20.29
2023-05-25T13:18:00.667Z,19.56
2023-05-25T13:20:32.616Z,19.85
2023-05-25T13:23:00.682Z,19.27
2023-05-25T13:25:28.777Z,19.03
2023-05-25T13:27:58.300Z,19.00
2023-05-25T13:30:25.875Z,19.09
2023-05-25T13:32:59.609Z,18.31
2023-05-25T13:35:46.345Z,18.27
2023-05-25T13:38:16.607Z,18.95
2023-05-25T13:40:45.624Z,18.58
2023-05-25T13:43:14.028Z,17.90
2023-05-25T13:45:41.995Z,17.81
2023-05-25T13:48:10.113Z,18.22
2023-05-25T13:50:38.054Z,18.12
2023-05-25T13:53:06.149Z,17.75
2023-05-25T13:55:35.646Z,17.51
2023-05-25T13:58:05.780Z,17.22
2023-05-25T14:00:33.713Z,18.04
2023-05-25T14:03:00.915Z,18.42
2023-05-25T14:05:28.891Z,18.07
2023-05-25T14:07:56.808Z,18.02
2023-05-25T14:10:24.907Z,17.61
2023-05-25T14:12:53.091Z,18.32
2023-05-25T14:15:20.960Z,18.67
2023-05-25T14:17:48.908Z,18.79
2023-05-25T14:20:21.247Z,18.62
2023-05-25T14:22:49.339Z,18.57
2023-05-25T14:25:18.056Z,18.39
2023-05-25T14:27:45.930Z,17.72
2023-05-25T14:30:14.485Z,18.20
2023-05-25T14:32:42.893Z,18.09
2023-05-25T14:35:11.494Z,17.76
2023-05-25T14:37:39.375Z,17.45
2023-05-25T14:40:10.921Z,17.86
2023-05-25T14:42:38.907Z,17.83
2023-05-25T14:45:11.609Z,17.74
2023-05-25T14:47:40.816Z,17.36
2023-05-25T14:50:10.650Z,17.56
2023-05-25T14:52:38.773Z,17.20
2023-05-25T14:55:09.124Z,17.98
2023-05-25T14:57:37.073Z,17.61
2023-05-25T15:00:06.002Z,18.12
2023-05-25T15:02:34.492Z,18.44
2023-05-25T15:05:02.512Z,19.04
2023-05-25T15:07:30.127Z,19.09
2023-05-25T15:09:58.440Z,19.24
2023-05-25T15:12:26.641Z,19.05
2023-05-25T15:14:54.214Z,18.54
2023-05-25T15:17:23.491Z,17.87
2023-05-25T15:19:51.327Z,18.45
2023-05-25T15:22:19.737Z,18.35
2023-05-25T15:24:47.814Z,18.56
2023-05-25T15:27:15.907Z,18.59
2023-05-25T15:29:43.533Z,18.66
2023-05-25T15:32:13.368Z,18.81
2023-05-25T15:34:41.702Z,19.58
2023-05-25T15:37:11.209Z,18.91
2023-05-25T15:39:39.857Z,18.84
2023-05-25T15:42:07.678Z,19.51
2023-05-25T15:44:35.800Z,19.91
2023-05-25T15:47:03.434Z,18.73
2023-05-25T15:49:32.153Z,18.66
2023-05-25T15:51:59.691Z,19.00
2023-05-25T15:54:27.803Z,18.56
2023-05-25T15:56:56.086Z,19.16
2023-05-25T15:59:24.409Z,19.55
2023-05-25T16:01:52.652Z,19.55
2023-05-25T16:04:20.946Z,20.10
2023-05-25T16:06:48.799Z,21.21
2023-05-25T16:09:16.972Z,22.33
2023-05-25T16:11:45.629Z,23.10
2023-05-25T16:14:13.243Z,23.26
2023-05-25T16:16:41.353Z,24.76
2023-05-25T16:19:10.500Z,25.38
2023-05-25T16:21:40.434Z,26.10
2023-05-25T16:24:10.580Z,26.85
2023-05-25T16:26:38.126Z,28.18
2023-05-25T16:29:06.238Z,28.34
2023-05-25T16:31:34.777Z,28.19
2023-05-25T16:34:03.106Z,28.98
2023-05-25T16:36:31.543Z,30.05
2023-05-25T16:38:59.720Z,30.15
2023-05-25T16:41:27.675Z,29.70
2023-05-25T16:43:55.325Z,28.91
2023-05-25T16:46:25.173Z,29.23
2023-05-25T16:48:53.038Z,27.78
2023-05-25T16:51:20.733Z,27.44
2023-05-25T16:53:48.450Z,27.43
2023-05-25T16:56:16.623Z,26.42
2023-05-25T16:58:44.316Z,26.92
2023-05-25T17:01:12.134Z,27.90
2023-05-25T17:03:40.322Z,29.34
2023-05-25T17:06:09.478Z,29.08
2023-05-25T17:08:37.586Z,29.04
2023-05-25T17:11:05.926Z,29.99
2023-05-25T17:13:34.015Z,29.51
2023-05-25T17:16:02.061Z,30.58
2023-05-25T17:18:30.142Z,31.89
2023-05-25T17:20:58.251Z,32.41
2023-05-25T17:23:26.415Z,32.70
2023-05-25T17:25:54.855Z,33.19
2023-05-25T17:28:22.713Z,34.23
2023-05-25T17:30:50.611Z,34.51
2023-05-25T17:33:18.805Z,35.98
2023-05-25T17:35:46.914Z,36.44
2023-05-25T17:38:15.373Z,38.21
2023-05-25T17:40:43.967Z,39.36
2023-05-25T17:43:11.690Z,40.08
2023-05-25T17:45:39.643Z,40.64
2023-05-25T17:48:07.653Z,41.20
2023-05-25T17:50:35.462Z,41.04
2023-05-25T17:53:02.928Z,41.48
2023-05-25T17:55:30.883Z,42.61
2023-05-25T17:57:59.184Z,42.74
2023-05-25T18:00:27.647Z,42.88
2023-05-25T18:02:55.849Z,42.94
2023-05-25T18:05:23.906Z,42.84
2023-05-25T18:07:51.412Z,42.23
2023-05-25T18:10:22.661Z,42.57
2023-05-25T18:12:52.295Z,43.68
2023-05-25T18:15:20.529Z,44.02
2023-05-25T18:17:48.317Z,45.15
2023-05-25T18:20:17.111Z,45.86
2023-05-25T18:22:45.060Z,46.22
2023-05-25T18:25:13.214Z,47.01
2023-05-25T18:27:41.185Z,48.16
2023-05-25T18:30:12.137Z,48.95
2023-05-25T18:32:40.210Z,49.43
2023-05-25T18:35:09.534Z,49.52
2023-05-25T18:37:37.672Z,49.98
2023-05-25T18:40:07.421Z,50.83
2023-05-25T18:42:35.628Z,52.19
2023-05-25T18:45:03.649Z,51.70
2023-05-25T18:47:31.504Z,51.28
2023-05-25T18:49:59.069Z,50.98
2023-05-25T18:52:26.649Z,51.19
2023-05-25T18:54:54.524Z,50.90
2023-05-25T18:57:22.098Z,51.09
2023-05-25T18:59:50.551Z,51.95
2023-05-25T19:02:19.018Z,52.63
2023-05-25T19:04:47.529Z,52.49
2023-05-25T19:07:15.567Z,52.78
2023-05-25T19:09:43.410Z,53.06
2023-05-25T19:12:11.053Z,53.38
2023-05-25T19:14:39.184Z,54.01
2023-05-25T19:17:06.781Z,54.38
2023-05-25T19:19:34.824Z,54.40
2023-05-25T19:22:02.422Z,54.58
2023-05-25T19:24:30.238Z,54.87
2023-05-25T19:26:58.878Z,54.65
2023-05-25T19:29:26.421Z,54.75
2023-05-25T19:31:54.799Z,54.70
2023-05-25T19:34:22.514Z,55.40
2023-05-25T19:36:59.684Z,55.60
2023-05-25T19:39:32.406Z,55.78
2023-05-25T19:42:01.756Z,56.31
2023-05-25T19:44:29.579Z,56.73
2023-05-25T19:46:57.581Z,57.51
2023-05-25T19:49:25.560Z,57.61
2023-05-25T19:51:53.757Z,58.63
2023-05-25T19:54:21.224Z,59.06
2023-05-25T19:56:48.960Z,60.28
2023-05-25T19:59:17.605Z,60.01
2023-05-25T20:01:45.867Z,60.06
2023-05-25T20:04:14.111Z,59.82
2023-05-25T20:06:42.357Z,60.39
2023-05-25T20:09:12.598Z,60.52
2023-05-25T20:11:40.481Z,60.44
2023-05-25T20:14:08.504Z,60.47
2023-05-25T20:16:36.448Z,60.70
2023-05-25T20:19:07.534Z,60.89
2023-05-25T20:21:35.727Z,61.22
2023-05-25T20:24:03.520Z,60.97
2023-05-25T20:26:31.149Z,61.51
2023-05-25T20:28:59.604Z,61.51
2023-05-25T20:31:27.906Z,61.46
2023-05-25T20:33:59.798Z,61.22
2023-05-25T20:36:27.762Z,61.70
2023-05-25T20:38:55.892Z,61.87
2023-05-25T20:41:24.411Z,61.87
2023-05-25T20:43:52.468Z,62.30
2023-05-25T20:46:20.548Z,63.20
2023-05-25T20:48:48.528Z,63.94
2023-05-25T20:51:16.184Z,63.57
2023-05-25T20:53:44.192Z,63.71
2023-05-25T20:56:11.996Z,63.51
2023-05-25T20:58:40.963Z,63.74
2023-05-25T21:01:08.896Z,63.63
2023-05-25T21:03:36.786Z,64.57
2023-05-25T21:06:05.221Z,64.94
2023-05-25T21:08:32.906Z,64.90
2023-05-25T21:11:00.891Z,64.64
2023-05-25T21:13:28.932Z,65.10
2023-05-25T21:15:56.788Z,65.15
2023-05-25T21:18:24.894Z,64.99
2023-05-25T21:20:52.795Z,65.10
2023-05-25T21:23:20.754Z,65.16
2023-05-25T21:25:49.455Z,64.72
2023-05-25T21:28:36.751Z,64.63
2023-05-25T21:31:04.825Z,65.20
2023-05-25T21:33:35.867Z,65.57
2023-05-25T21:36:03.953Z,65.33
2023-05-25T21:38:31.580Z,65.99
2023-05-25T21:40:59.058Z,66.01
2023-05-25T21:43:49.166Z,66.30
2023-05-25T21:46:17.653Z,66.53
2023-05-25T21:48:48.084Z,66.93
2023-05-25T21:51:17.124Z,66.51
2023-05-25T21:53:45.459Z,66.93
2023-05-25T21:56:16.989Z,66.78
2023-05-25T22:16:49.786Z,67.57
2023-05-25T22:22:06.985Z,68.72
2023-05-25T22:27:27.300Z,70.01
